GCTS/TFS METAR and TAF weather

Enter ICAO airport designator
Station Type Date Time Source
GCTS METAR 2019/12/06 04:00 UTC NOAA

GCTS 060400Z 33008KT 9999 SCT090 18/11 Q1015 NOSIG


Station Type Date Time Source
GCTS Decoded METAR 2019/12/06 04:00 UTC NOAA

Tenerife Sur, Spain (GCTS) 28-03N 016-34W 77M
Dec 05, 2019 - 11:00 PM EST / 2019.12.06 0400 UTC
Wind: from the NNW (330 degrees) at 9 MPH (8 KT):0
Visibility: greater than 7 mile(s):0
Sky conditions: partly cloudy
Temperature: 64 F (18 C)
Dew Point: 51 F (11 C)
Relative Humidity: 63%
Pressure (altimeter): 29.97 in. Hg (1015 hPa)
ob: GCTS 060400Z 33008KT 9999 SCT090 18/11 Q1015 NOSIG
cycle: 4

Station Type Date Time Source
GCTS TAF 2019/12/06 03:27 UTC NOAA

TAF GCTS 060200Z 0603/0703 32008KT 9999 SCT050 TX24/0615Z TN16/0606Z
TEMPO 0612/0618 23010KT

Example: see airport list